METAR Data
IDs: Format: Raw Decoded Include TAF

Data at: 0311 UTC 25 Feb 2021

LOWL 250250Z AUTO 27002KT 7000 1000E R26/1400D BR NCD 01/01 Q1031